Time;durP1;ratioP1;P1;durP2;ratioP2;P2;SDS_P1;SDS_P2;PMS_P1;PMS_P2;Temp;Humidity;BMP_temperature;BMP_pressure;BME280_temperature;BME280_humidity;BME280_pressure;Samples;Min_cycle;Max_cycle;Signal;HPM_P1;HPM_P2
2022/03/09 00:00:23;;;;;;;12.93;6.28;;;5.90;39.40;;;;;;9995688;28;20394;-74
2022/03/09 00:05:14;;;;;;;12.13;6.43;;;5.80;39.70;;;;;;10007155;28;20033;-75
2022/03/09 00:10:05;;;;;;;13.70;7.10;;;5.80;39.80;;;;;;10010166;28;20074;-74
2022/03/09 00:14:57;;;;;;;13.98;7.10;;;5.80;40.00;;;;;;10004846;28;20049;-74
2022/03/09 00:19:47;;;;;;;10.77;6.53;;;5.80;40.10;;;;;;10008131;28;20116;-74
2022/03/09 00:24:38;;;;;;;13.70;7.70;;;5.70;40.90;;;;;;10010070;28;20113;-73
2022/03/09 00:29:29;;;;;;;17.00;8.48;;;5.60;40.60;;;;;;10004613;28;20034;-75
2022/03/09 00:34:20;;;;;;;15.55;7.85;;;5.50;40.80;;;;;;10004173;28;20153;-73
2022/03/09 00:39:10;;;;;;;14.70;7.03;;;5.60;41.10;;;;;;10004592;28;20137;-75
2022/03/09 00:44:02;;;;;;;12.50;7.00;;;5.50;41.30;;;;;;10010365;28;20040;-75
2022/03/09 00:48:52;;;;;;;13.88;6.82;;;5.40;41.70;;;;;;10012442;28;20026;-73
2022/03/09 00:53:43;;;;;;;14.18;7.72;;;5.20;41.80;;;;;;10011132;28;20034;-73
2022/03/09 00:58:34;;;;;;;16.48;7.93;;;5.30;41.90;;;;;;10007250;28;20172;-75
2022/03/09 01:03:24;;;;;;;17.35;8.38;;;5.10;42.00;;;;;;9990724;28;20605;-75
2022/03/09 01:08:15;;;;;;;17.40;7.72;;;5.00;42.10;;;;;;10001455;28;20114;-75
2022/03/09 01:13:06;;;;;;;14.68;6.72;;;5.00;42.20;;;;;;10003962;28;20074;-75
2022/03/09 01:17:56;;;;;;;16.45;7.32;;;4.80;42.40;;;;;;10008177;28;20436;-73
2022/03/09 01:22:48;;;;;;;14.38;7.35;;;4.90;42.60;;;;;;10005786;28;20116;-74
2022/03/09 01:27:39;;;;;;;18.52;8.13;;;4.80;42.50;;;;;;10005654;28;20092;-74
2022/03/09 01:32:30;;;;;;;14.05;7.22;;;4.80;42.50;;;;;;10014843;28;20100;-76
2022/03/09 01:37:20;;;;;;;16.40;7.60;;;4.70;42.40;;;;;;10004793;28;20265;-73
2022/03/09 01:42:11;;;;;;;12.40;6.40;;;4.60;42.60;;;;;;10014745;28;20479;-72
2022/03/09 01:47:02;;;;;;;19.30;7.60;;;4.50;42.70;;;;;;10004177;28;20052;-74
2022/03/09 01:51:55;;;;;;;13.70;7.20;;;4.50;42.60;;;;;;10005421;28;20026;-74
2022/03/09 01:56:47;;;;;;;14.70;6.35;;;4.50;42.80;;;;;;10012656;28;20049;-76
2022/03/09 02:01:38;;;;;;;12.13;6.47;;;4.50;42.80;;;;;;10008534;28;20049;-73
2022/03/09 02:06:31;;;;;;;14.65;7.63;;;4.50;43.50;;;;;;10010006;28;20084;-75
2022/03/09 02:11:22;;;;;;;13.05;6.80;;;4.40;43.00;;;;;;9998722;28;20401;-73
2022/03/09 02:16:16;;;;;;;11.20;5.88;;;4.30;43.20;;;;;;10011000;28;20042;-72
2022/03/09 02:21:10;;;;;;;15.55;7.00;;;4.30;43.20;;;;;;10008682;28;20040;-72
2022/03/09 02:26:01;;;;;;;13.02;6.63;;;4.40;43.30;;;;;;9999368;28;20034;-74
2022/03/09 02:30:55;;;;;;;9.68;5.85;;;4.20;43.40;;;;;;10015219;28;20044;-74
2022/03/09 02:35:46;;;;;;;16.02;7.35;;;4.20;43.40;;;;;;10026443;28;20428;-73
2022/03/09 02:40:37;;;;;;;14.65;6.40;;;4.10;43.50;;;;;;10004370;28;20026;-73
2022/03/09 02:45:27;;;;;;;14.90;6.50;;;4.10;43.70;;;;;;10001618;28;20028;-73
2022/03/09 02:50:18;;;;;;;12.02;6.28;;;4.20;43.70;;;;;;10007453;28;20034;-72
2022/03/09 02:55:13;;;;;;;13.98;7.80;;;4.10;43.70;;;;;;10012816;28;20034;-73
2022/03/09 03:00:07;;;;;;;19.30;6.07;;;3.90;44.00;;;;;;10008366;28;20440;-73
2022/03/09 03:04:58;;;;;;;14.20;6.40;;;3.90;44.20;;;;;;10006343;28;20484;-75
2022/03/09 03:09:49;;;;;;;16.58;6.50;;;3.80;44.30;;;;;;10008822;28;20042;-74
2022/03/09 03:14:39;;;;;;;14.07;7.15;;;3.70;44.60;;;;;;10009346;28;20129;-74
2022/03/09 03:19:30;;;;;;;13.05;6.97;;;3.80;44.50;;;;;;10009128;28;20074;-73
2022/03/09 03:24:21;;;;;;;11.85;6.47;;;3.80;44.60;;;;;;9995502;28;20022;-71
2022/03/09 03:29:11;;;;;;;15.23;7.63;;;3.80;44.80;;;;;;10007057;28;20072;-72
2022/03/09 03:34:02;;;;;;;12.38;6.55;;;3.80;44.90;;;;;;10001892;28;20021;-71
2022/03/09 03:38:53;;;;;;;16.70;7.70;;;3.70;45.30;;;;;;10000362;28;20080;-73
2022/03/09 03:43:43;;;;;;;20.38;8.98;;;3.50;45.50;;;;;;10009214;28;20229;-74
2022/03/09 03:48:34;;;;;;;19.10;8.18;;;3.40;46.00;;;;;;10000436;28;20507;-74
2022/03/09 03:53:25;;;;;;;14.63;7.75;;;3.30;46.20;;;;;;10006723;28;20030;-74
2022/03/09 03:58:15;;;;;;;19.90;7.53;;;3.30;46.30;;;;;;10005620;28;20045;-74
2022/03/09 04:03:06;;;;;;;17.48;7.82;;;3.10;46.70;;;;;;10006335;28;20503;-71
2022/03/09 04:07:57;;;;;;;14.25;7.78;;;3.20;46.90;;;;;;10013346;28;20037;-75
2022/03/09 04:12:47;;;;;;;16.20;7.60;;;3.10;47.20;;;;;;10009412;28;20409;-73
2022/03/09 04:17:43;;;;;;;18.92;8.63;;;3.00;47.20;;;;;;10019718;28;20100;-74
2022/03/09 04:22:34;;;;;;;16.53;7.40;;;2.90;47.60;;;;;;10012537;28;20286;-72
2022/03/09 04:27:24;;;;;;;14.18;7.68;;;2.70;47.80;;;;;;10014946;28;20124;-73
2022/03/09 04:32:15;;;;;;;15.25;7.40;;;2.70;47.90;;;;;;10011606;28;20083;-71
2022/03/09 04:37:06;;;;;;;16.92;7.45;;;2.70;48.00;;;;;;10009518;28;20140;-73
2022/03/09 04:41:56;;;;;;;13.65;7.18;;;2.70;48.10;;;;;;10010917;28;20025;-72
2022/03/09 04:46:47;;;;;;;11.95;6.38;;;2.70;48.50;;;;;;10005329;28;20026;-73
2022/03/09 04:51:38;;;;;;;15.65;5.93;;;2.60;48.60;;;;;;9998833;28;20028;-73
2022/03/09 04:56:28;;;;;;;12.13;6.43;;;2.60;48.90;;;;;;10008134;28;20124;-76
2022/03/09 05:01:19;;;;;;;11.70;5.55;;;2.50;48.90;;;;;;10013196;28;20400;-75
2022/03/09 05:06:09;;;;;;;10.10;6.10;;;2.50;49.20;;;;;;10011597;28;20018;-76
2022/03/09 05:11:00;;;;;;;14.25;6.60;;;2.50;49.40;;;;;;10014049;28;20543;-74
2022/03/09 05:15:51;;;;;;;14.32;6.45;;;2.40;49.60;;;;;;10013070;28;20089;-74
2022/03/09 05:20:42;;;;;;;11.73;6.13;;;2.30;49.70;;;;;;10013886;28;20042;-73
2022/03/09 05:25:32;;;;;;;16.58;6.55;;;2.40;50.00;;;;;;10009147;28;20281;-75
2022/03/09 05:30:23;;;;;;;13.90;6.97;;;2.50;49.90;;;;;;10007980;28;20124;-74
2022/03/09 05:35:14;;;;;;;16.88;6.38;;;2.40;50.10;;;;;;10011509;28;20049;-74
2022/03/09 05:40:06;;;;;;;15.52;7.22;;;2.40;50.50;;;;;;10013385;28;20061;-73
2022/03/09 05:44:57;;;;;;;13.82;6.50;;;2.40;50.60;;;;;;10014763;28;20113;-72
2022/03/09 05:49:47;;;;;;;14.75;7.03;;;2.30;50.80;;;;;;10009889;28;20133;-73
2022/03/09 05:54:38;;;;;;;13.82;5.95;;;2.30;50.70;;;;;;10012686;28;20022;-74
2022/03/09 05:59:28;;;;;;;19.73;8.15;;;2.30;51.00;;;;;;10012444;28;20088;-75
2022/03/09 06:04:19;;;;;;;13.45;6.43;;;2.40;51.10;;;;;;10011814;28;20034;-75
2022/03/09 06:09:11;;;;;;;13.23;5.63;;;2.30;51.60;;;;;;10025913;28;20365;-73
2022/03/09 06:14:02;;;;;;;13.15;6.20;;;2.40;51.60;;;;;;9995669;28;20046;-74
2022/03/09 06:18:52;;;;;;;10.40;4.80;;;2.40;51.90;;;;;;9967112;28;20043;-74
2022/03/09 06:23:43;;;;;;;12.77;5.05;;;2.40;51.90;;;;;;9970883;28;20034;-74
2022/03/09 06:28:35;;;;;;;15.02;5.30;;;2.40;51.90;;;;;;9974639;28;20097;-74
2022/03/09 06:33:26;;;;;;;12.02;5.80;;;2.50;52.00;;;;;;9967625;28;20109;-73
2022/03/09 06:38:17;;;;;;;11.82;5.57;;;2.40;52.10;;;;;;9972349;28;20054;-75
2022/03/09 06:43:28;;;;;;;12.48;6.60;;;2.60;52.30;;;;;;9971161;28;20027;-73
2022/03/09 06:48:19;;;;;;;13.88;6.50;;;2.60;52.30;;;;;;9970705;28;20375;-74
2022/03/09 06:53:10;;;;;;;12.38;5.38;;;2.80;52.20;;;;;;9969301;28;20026;-74
2022/03/09 06:58:01;;;;;;;12.68;6.07;;;2.70;52.30;;;;;;9973411;28;20595;-71
2022/03/09 07:02:53;;;;;;;15.85;7.55;;;2.80;52.60;;;;;;9952335;28;20061;-74
2022/03/09 07:07:44;;;;;;;13.48;7.30;;;2.80;52.50;;;;;;9972159;28;20442;-76
2022/03/09 07:12:35;;;;;;;13.38;5.35;;;2.90;52.70;;;;;;9951398;28;20046;-72
2022/03/09 07:17:25;;;;;;;11.93;6.40;;;3.10;52.50;;;;;;9972430;28;20114;-72
2022/03/09 07:22:16;;;;;;;14.50;6.25;;;3.20;52.50;;;;;;9974153;28;20030;-74
2022/03/09 07:27:07;;;;;;;12.90;5.80;;;3.20;52.60;;;;;;9962708;28;20417;-72
2022/03/09 07:31:57;;;;;;;13.75;6.72;;;3.30;52.60;;;;;;9971328;28;20026;-74
2022/03/09 07:36:49;;;;;;;14.90;5.30;;;3.40;52.70;;;;;;9969348;28;20175;-65
2022/03/09 07:41:41;;;;;;;12.80;6.00;;;3.30;52.70;;;;;;9967498;28;20129;-65
2022/03/09 07:46:31;;;;;;;11.60;5.60;;;3.50;52.80;;;;;;9965769;28;20050;-64
2022/03/09 07:51:22;;;;;;;14.93;6.25;;;3.60;52.70;;;;;;9965598;28;20034;-64
2022/03/09 07:56:13;;;;;;;16.08;7.10;;;3.80;52.60;;;;;;9966883;28;20559;-67
2022/03/09 08:01:04;;;;;;;15.00;6.47;;;3.90;52.50;;;;;;9967268;28;20038;-65
2022/03/09 08:05:55;;;;;;;13.48;6.00;;;4.10;52.60;;;;;;9966586;28;20026;-67
2022/03/09 08:10:49;;;;;;;11.15;6.07;;;4.20;52.60;;;;;;9965555;28;20158;-67
2022/03/09 08:15:40;;;;;;;15.15;7.00;;;4.30;52.60;;;;;;9965325;28;20325;-67
2022/03/09 08:20:30;;;;;;;13.43;6.20;;;4.40;52.50;;;;;;9967316;28;20257;-65
2022/03/09 08:25:21;;;;;;;11.95;6.18;;;4.60;52.50;;;;;;9955285;28;20034;-68
2022/03/09 08:30:12;;;;;;;20.52;7.28;;;4.70;52.50;;;;;;9958371;28;20509;-72
2022/03/09 08:35:03;;;;;;;12.55;6.18;;;4.70;52.40;;;;;;9967917;28;20062;-67
2022/03/09 08:39:54;;;;;;;11.50;6.10;;;4.90;52.50;;;;;;9971895;28;20189;-69
2022/03/09 08:44:45;;;;;;;24.63;11.23;;;5.00;52.40;;;;;;9970511;28;20182;-68
2022/03/09 08:49:39;;;;;;;21.73;11.02;;;5.00;52.30;;;;;;9954812;28;20026;-68
2022/03/09 08:54:30;;;;;;;12.57;6.55;;;5.10;52.20;;;;;;9960793;28;20082;-68
2022/03/09 08:59:21;;;;;;;15.70;7.40;;;5.10;52.30;;;;;;9972842;28;20668;-69
2022/03/09 09:04:12;;;;;;;14.70;7.32;;;5.20;52.30;;;;;;9974587;28;20041;-74
2022/03/09 09:09:06;;;;;;;12.40;6.72;;;5.30;52.10;;;;;;9968657;28;20420;-70
2022/03/09 09:13:57;;;;;;;16.90;7.82;;;5.40;52.00;;;;;;9967949;28;20511;-64
2022/03/09 09:18:47;;;;;;;14.82;7.60;;;5.60;51.80;;;;;;10009783;28;20038;-76
2022/03/09 09:23:39;;;;;;;14.68;7.22;;;5.80;51.70;;;;;;10007755;28;20029;-69
2022/03/09 09:28:30;;;;;;;13.63;8.18;;;5.90;51.60;;;;;;10011601;28;20041;-67
2022/03/09 09:33:20;;;;;;;17.02;7.18;;;6.10;51.30;;;;;;10006136;28;20552;-66
2022/03/09 09:38:11;;;;;;;14.85;7.53;;;6.20;51.30;;;;;;10011640;28;20053;-72
2022/03/09 09:43:07;;;;;;;14.40;6.50;;;6.40;51.10;;;;;;10011646;28;20033;-71
2022/03/09 09:47:58;;;;;;;;;;;6.50;51.00;;;;;;10014467;28;20041;-66
2022/03/09 09:52:48;;;;;;;14.13;6.38;;;6.70;50.80;;;;;;10012189;28;20381;-71
2022/03/09 09:57:39;;;;;;;15.80;7.30;;;6.80;50.50;;;;;;10010986;28;20346;-70
2022/03/09 10:02:30;;;;;;;14.55;7.32;;;7.10;50.40;;;;;;10012850;28;20074;-70
2022/03/09 10:07:21;;;;;;;13.35;6.97;;;7.20;50.20;;;;;;10016076;28;20040;-70
2022/03/09 10:12:13;;;;;;;14.07;7.10;;;7.30;50.10;;;;;;10008559;28;20041;-67
2022/03/09 10:17:14;;;;;;;17.50;8.68;;;7.40;50.00;;;;;;10013535;28;20582;-67
2022/03/09 10:22:31;;;;;;;13.35;6.57;;;7.40;49.90;;;;;;10009657;28;20562;-74
2022/03/09 10:27:34;;;;;;;52.25;22.38;;;7.50;49.80;;;;;;10009168;28;20531;-70
2022/03/09 10:32:53;;;;;;;97.45;46.53;;;7.70;49.60;;;;;;10006116;28;20042;-65
2022/03/09 10:37:47;;;;;;;26.75;14.02;;;8.00;49.20;;;;;;10009060;28;20243;-68
2022/03/09 10:42:37;;;;;;;15.82;8.00;;;7.90;49.20;;;;;;10010101;28;20044;-70
2022/03/09 10:47:49;;;;;;;18.27;9.80;;;8.00;49.30;;;;;;10006955;28;20034;-66
2022/03/09 10:52:56;;;;;;;21.67;9.55;;;8.20;49.00;;;;;;10008855;28;20529;-70
2022/03/09 10:57:46;;;;;;;18.42;8.13;;;8.40;48.70;;;;;;10009027;28;20294;-67
2022/03/09 11:02:51;;;;;;;19.23;9.27;;;8.40;48.70;;;;;;10008834;28;20092;-66
2022/03/09 11:07:42;;;;;;;18.13;8.95;;;8.40;48.50;;;;;;10004171;28;20034;-66
2022/03/09 11:12:33;;;;;;;16.83;8.40;;;8.60;48.50;;;;;;10006798;28;20045;-64
2022/03/09 11:17:23;;;;;;;20.20;9.25;;;8.70;48.40;;;;;;10008176;28;20385;-69
2022/03/09 11:22:17;;;;;;;27.48;11.57;;;8.70;48.40;;;;;;10007422;28;20030;-68
2022/03/09 11:27:10;;;;;;;21.90;11.23;;;8.70;48.20;;;;;;10009043;28;20030;-65
2022/03/09 11:32:06;;;;;;;19.55;9.48;;;8.90;48.00;;;;;;10010037;28;20034;-66
2022/03/09 11:37:00;;;;;;;21.38;10.90;;;9.00;47.80;;;;;;10004456;28;20069;-65
2022/03/09 11:42:19;;;;;;;20.30;9.80;;;9.20;47.60;;;;;;10003766;28;20456;-66
2022/03/09 11:47:11;;;;;;;19.80;10.10;;;9.30;47.40;;;;;;10005506;28;20045;-68
2022/03/09 11:52:09;;;;;;;21.92;9.80;;;9.40;47.40;;;;;;10004196;28;20044;-70
2022/03/09 11:57:00;;;;;;;19.77;9.50;;;9.50;47.20;;;;;;10005460;28;20132;-66
2022/03/09 12:02:06;;;;;;;24.75;10.25;;;9.60;47.10;;;;;;10009821;28;20116;-66
2022/03/09 12:06:57;;;;;;;18.58;9.48;;;9.70;47.00;;;;;;10011987;28;20095;-70
2022/03/09 12:12:08;;;;;;;25.67;12.80;;;9.70;46.80;;;;;;10007179;28;20034;-70
2022/03/09 12:16:59;;;;;;;23.92;10.90;;;9.90;46.30;;;;;;10010959;28;20121;-70
2022/03/09 12:21:50;;;;;;;25.02;11.50;;;10.20;46.30;;;;;;9998676;28;20038;-72
2022/03/09 12:26:56;;;;;;;20.42;11.50;;;10.50;46.00;;;;;;10007977;28;20457;-71
2022/03/09 12:32:00;;;;;;;22.03;11.00;;;10.70;45.70;;;;;;10004432;28;20033;-72
2022/03/09 12:36:51;;;;;;;25.15;11.52;;;10.80;45.50;;;;;;10008537;28;20137;-72
2022/03/09 12:41:42;;;;;;;21.90;11.20;;;11.10;45.30;;;;;;9999358;28;20141;-75
2022/03/09 12:46:34;;;;;;;25.45;11.20;;;11.40;45.00;;;;;;10002763;28;20030;-73
2022/03/09 12:51:25;;;;;;;21.63;10.70;;;11.90;45.00;;;;;;10004484;28;20114;-72
2022/03/09 12:56:21;;;;;;;20.92;12.13;;;12.40;45.00;;;;;;10000926;28;20124;-74
2022/03/09 13:01:15;;;;;;;19.75;11.23;;;12.80;45.00;;;;;;10005259;28;20125;-72
2022/03/09 13:06:20;;;;;;;23.52;11.18;;;13.00;45.20;;;;;;9990170;28;20509;-63
2022/03/09 13:11:11;;;;;;;;;;;13.30;45.70;;;;;;9999246;28;20117;-69
2022/03/09 13:16:03;;;;;;;60.30;26.73;;;13.70;45.60;;;;;;10002294;28;19917;-63
2022/03/09 13:20:54;;;;;;;33.58;15.93;;;14.20;46.50;;;;;;10006610;28;20030;-77
2022/03/09 13:25:45;;;;;;;23.85;12.07;;;14.40;46.90;;;;;;10001309;28;20129;-62
2022/03/09 13:30:36;;;;;;;22.75;13.48;;;14.70;47.40;;;;;;10012221;28;20116;-66
2022/03/09 13:35:28;;;;;;;23.92;14.88;;;15.30;47.60;;;;;;10005317;28;20563;-67
2022/03/09 13:40:18;;;;;;;24.55;13.48;;;15.70;47.60;;;;;;10011022;28;20389;-66
2022/03/09 13:45:17;;;;;;;23.77;13.60;;;16.20;47.30;;;;;;10009512;28;20484;-66
2022/03/09 13:50:24;;;;;;;17.00;12.73;;;16.90;46.20;;;;;;10006016;28;20100;-67
2022/03/09 13:55:43;;;;;;;22.92;12.68;;;18.00;44.40;;;;;;10011053;28;20034;-69
2022/03/09 14:00:37;;;;;;;23.77;14.02;;;19.30;41.40;;;;;;10011803;28;20058;-76
2022/03/09 14:05:32;;;;;;;22.55;14.25;;;19.80;41.40;;;;;;10009149;28;20704;-73
2022/03/09 14:10:34;;;;;;;17.17;12.45;;;19.90;41.20;;;;;;9998570;28;20030;-69
2022/03/09 14:15:26;;;;;;;19.17;12.63;;;19.90;40.50;;;;;;10012053;28;20137;-69
2022/03/09 14:20:18;;;;;;;21.88;12.90;;;20.30;39.70;;;;;;10009179;28;20602;-73
2022/03/09 14:25:10;;;;;;;19.13;13.07;;;20.60;39.10;;;;;;10008390;28;20097;-64
2022/03/09 14:30:01;;;;;;;22.95;11.43;;;20.60;38.30;;;;;;10011296;28;20030;-70
2022/03/09 14:34:51;;;;;;;22.60;12.57;;;20.90;37.50;;;;;;10011514;28;20028;-68
2022/03/09 14:39:44;;;;;;;16.92;11.07;;;21.50;36.60;;;;;;10006299;28;20071;-71
2022/03/09 14:44:36;;;;;;;19.50;11.30;;;22.00;35.60;;;;;;10013050;28;20029;-71
2022/03/09 14:49:27;;;;;;;20.98;12.60;;;23.10;34.50;;;;;;10012672;28;20029;-72
2022/03/09 14:54:18;;;;;;;22.00;12.07;;;24.10;33.30;;;;;;10004788;28;20026;-74
2022/03/09 14:59:08;;;;;;;19.15;13.02;;;25.10;31.90;;;;;;10008635;28;20042;-74
2022/03/09 15:04:00;;;;;;;19.00;11.38;;;25.30;31.40;;;;;;10005819;28;20197;-67
2022/03/09 15:08:51;;;;;;;19.17;11.85;;;25.90;30.40;;;;;;10000535;28;20040;-66
2022/03/09 15:13:42;;;;;;;18.92;11.18;;;26.20;30.00;;;;;;10004044;28;20060;-69
2022/03/09 15:18:33;;;;;;;16.85;10.10;;;26.80;29.50;;;;;;10008420;28;20042;-68
2022/03/09 15:23:23;;;;;;;16.15;10.32;;;26.90;29.20;;;;;;10008567;28;20030;-71
2022/03/09 15:28:14;;;;;;;16.02;11.00;;;27.20;28.80;;;;;;10009094;28;20296;-73
2022/03/09 15:33:05;;;;;;;17.48;10.77;;;27.00;28.60;;;;;;10004760;28;20022;-73
2022/03/09 15:37:55;;;;;;;20.85;11.23;;;27.20;28.50;;;;;;10007928;28;20034;-67
2022/03/09 15:42:46;;;;;;;17.05;11.55;;;27.00;28.20;;;;;;10006214;28;20065;-68
2022/03/09 15:47:37;;;;;;;18.13;10.50;;;26.80;28.10;;;;;;10003722;28;20033;-68
2022/03/09 15:52:28;;;;;;;15.43;10.50;;;26.60;28.10;;;;;;10006628;28;20026;-65
2022/03/09 15:57:20;;;;;;;14.80;10.13;;;26.30;28.10;;;;;;10007776;28;20042;-68
2022/03/09 16:02:11;;;;;;;18.67;10.70;;;26.00;28.20;;;;;;10004749;28;20030;-70
2022/03/09 16:07:01;;;;;;;16.65;9.80;;;25.40;28.40;;;;;;10008540;28;20033;-67
2022/03/09 16:11:52;;;;;;;14.07;9.48;;;25.20;28.50;;;;;;10006320;28;20385;-72
2022/03/09 16:16:43;;;;;;;14.90;9.38;;;24.30;28.80;;;;;;10007062;28;20045;-65
2022/03/09 16:21:34;;;;;;;16.17;8.88;;;24.30;28.70;;;;;;10005623;28;20096;-74
2022/03/09 16:26:25;;;;;;;16.63;10.05;;;23.10;29.40;;;;;;10006066;28;20382;-74
2022/03/09 16:31:17;;;;;;;16.20;9.65;;;21.20;30.00;;;;;;10009800;28;20030;-71
2022/03/09 16:36:07;;;;;;;17.77;8.85;;;18.00;32.70;;;;;;10004320;28;20026;-74
2022/03/09 16:40:59;;;;;;;19.33;8.38;;;16.40;33.60;;;;;;10012822;28;20566;-71
2022/03/09 16:45:49;;;;;;;19.55;9.63;;;15.50;34.00;;;;;;10010242;28;20025;-69
2022/03/09 16:50:40;;;;;;;17.05;9.13;;;14.90;34.30;;;;;;10003941;28;20505;-72
2022/03/09 16:55:30;;;;;;;18.90;9.32;;;14.50;34.40;;;;;;9997198;28;20455;-68
2022/03/09 17:00:21;;;;;;;24.55;10.75;;;14.30;34.30;;;;;;10008993;28;20061;-67
2022/03/09 17:05:12;;;;;;;21.65;10.30;;;14.00;34.30;;;;;;10015617;28;20048;-70
2022/03/09 17:10:05;;;;;;;19.35;10.15;;;13.80;34.50;;;;;;10017832;28;20112;-69
2022/03/09 17:14:57;;;;;;;23.25;10.93;;;13.70;34.60;;;;;;10012745;28;20049;-66
2022/03/09 17:19:48;;;;;;;23.25;10.32;;;13.50;34.90;;;;;;10007598;28;20238;-65
2022/03/09 17:24:38;;;;;;;23.88;9.20;;;13.30;35.10;;;;;;10011629;28;20025;-65
2022/03/09 17:29:29;;;;;;;19.73;10.57;;;13.20;35.30;;;;;;10009509;28;20124;-73
2022/03/09 17:34:20;;;;;;;23.13;9.85;;;13.10;35.60;;;;;;10016139;28;20264;-69
2022/03/09 17:39:11;;;;;;;19.83;10.23;;;13.00;35.70;;;;;;10003928;28;20037;-65
2022/03/09 17:44:02;;;;;;;19.00;9.57;;;12.80;36.10;;;;;;10013967;28;20060;-66
2022/03/09 17:48:53;;;;;;;19.23;10.27;;;12.70;36.30;;;;;;10008455;28;20042;-66
2022/03/09 17:53:44;;;;;;;19.40;9.18;;;12.60;36.60;;;;;;10012964;28;20037;-67
2022/03/09 17:58:35;;;;;;;17.73;9.20;;;12.50;36.90;;;;;;10011482;28;20038;-65
2022/03/09 18:03:25;;;;;;;20.55;7.82;;;12.40;37.40;;;;;;10012753;28;20448;-63
2022/03/09 18:08:18;;;;;;;23.98;9.95;;;12.30;37.70;;;;;;10001503;28;20037;-63
2022/03/09 18:13:08;;;;;;;17.13;9.95;;;12.30;37.90;;;;;;10010526;28;20304;-63
2022/03/09 18:17:59;;;;;;;17.63;9.45;;;12.20;37.90;;;;;;10010679;28;20301;-63
2022/03/09 18:22:52;;;;;;;23.75;9.43;;;12.10;38.20;;;;;;10012532;28;20029;-63
2022/03/09 18:27:44;;;;;;;23.88;10.68;;;12.10;38.20;;;;;;10017611;28;20040;-64
2022/03/09 18:32:35;;;;;;;24.17;12.48;;;12.00;38.40;;;;;;10017324;28;20017;-65
2022/03/09 18:37:26;;;;;;;22.23;10.27;;;12.00;38.40;;;;;;10011890;28;20041;-64
2022/03/09 18:42:16;;;;;;;18.75;9.48;;;11.90;38.60;;;;;;10012685;28;20085;-62
2022/03/09 18:47:08;;;;;;;22.15;10.30;;;11.80;38.60;;;;;;10013404;28;20022;-59
2022/03/09 18:51:58;;;;;;;23.13;9.93;;;11.80;38.80;;;;;;10008011;28;20101;-60
2022/03/09 18:56:49;;;;;;;22.13;11.93;;;11.80;38.70;;;;;;10011535;28;20595;-61
2022/03/09 19:01:40;;;;;;;25.23;11.27;;;11.70;38.60;;;;;;10011379;28;20497;-63
2022/03/09 19:06:31;;;;;;;19.20;9.75;;;11.60;38.80;;;;;;10010154;28;20450;-60
2022/03/09 19:11:22;;;;;;;22.70;11.35;;;11.60;38.80;;;;;;10012084;28;20026;-62
2022/03/09 19:16:13;;;;;;;26.42;11.77;;;11.50;38.80;;;;;;9993280;28;20049;-62
2022/03/09 19:21:03;;;;;;;22.65;12.48;;;11.40;39.10;;;;;;10024410;28;20044;-62
2022/03/09 19:25:54;;;;;;;37.05;14.10;;;11.30;39.00;;;;;;10009513;28;20048;-62
2022/03/09 19:30:46;;;;;;;28.15;12.05;;;11.30;39.20;;;;;;10011531;28;20033;-62
2022/03/09 19:35:37;;;;;;;29.92;12.35;;;11.20;39.20;;;;;;10012427;28;20022;-61
2022/03/09 19:40:28;;;;;;;23.17;12.25;;;11.20;39.40;;;;;;10012720;28;20044;-63
2022/03/09 19:45:20;;;;;;;21.77;9.85;;;11.10;39.70;;;;;;10009727;28;20026;-63
2022/03/09 19:50:11;;;;;;;20.27;11.75;;;11.00;39.70;;;;;;10007465;28;20245;-64
2022/03/09 19:55:03;;;;;;;28.90;11.07;;;11.00;39.90;;;;;;10005496;28;20121;-62
2022/03/09 19:59:54;;;;;;;18.42;10.90;;;10.90;40.00;;;;;;10012947;28;20045;-62
2022/03/09 20:04:44;;;;;;;24.13;12.27;;;10.80;40.00;;;;;;10012999;28;20034;-61
2022/03/09 20:09:35;;;;;;;22.25;11.88;;;10.80;40.10;;;;;;9997320;28;20056;-62
2022/03/09 20:14:29;;;;;;;21.40;11.98;;;10.60;40.20;;;;;;10018221;28;20099;-63
2022/03/09 20:19:19;;;;;;;22.90;11.60;;;10.50;40.30;;;;;;10021912;28;20037;-63
2022/03/09 20:24:16;;;;;;;21.40;10.13;;;10.70;40.40;;;;;;10030006;28;20029;-62
2022/03/09 20:29:07;;;;;;;23.48;13.00;;;10.60;40.50;;;;;;9998974;28;20068;-61
2022/03/09 20:33:58;;;;;;;20.20;10.73;;;10.50;40.50;;;;;;10029994;28;20045;-62
2022/03/09 20:38:49;;;;;;;21.55;11.18;;;10.40;40.80;;;;;;10028896;28;20029;-62
2022/03/09 20:43:39;;;;;;;25.13;12.43;;;10.40;40.70;;;;;;10020056;28;20493;-62
2022/03/09 20:48:30;;;;;;;24.30;11.27;;;10.30;40.90;;;;;;10017823;28;20038;-63
2022/03/09 20:53:21;;;;;;;23.60;10.65;;;10.10;41.00;;;;;;10005374;28;20030;-63
2022/03/09 20:58:11;;;;;;;22.10;10.95;;;10.10;41.30;;;;;;10013772;28;20444;-62
2022/03/09 21:03:04;;;;;;;29.80;12.93;;;10.10;41.30;;;;;;10027523;28;20044;-62
2022/03/09 21:07:55;;;;;;;23.75;12.32;;;10.00;41.20;;;;;;10016431;28;20469;-62
2022/03/09 21:12:46;;;;;;;28.77;14.05;;;9.90;41.50;;;;;;10009520;28;20046;-62
2022/03/09 21:17:37;;;;;;;33.92;15.82;;;9.70;41.70;;;;;;10020765;28;20187;-61
2022/03/09 21:22:27;;;;;;;29.48;15.20;;;9.60;41.90;;;;;;10016311;28;20087;-61
2022/03/09 21:27:18;;;;;;;25.75;12.07;;;9.50;42.00;;;;;;10009708;28;20024;-62
2022/03/09 21:32:09;;;;;;;26.52;14.60;;;9.50;42.40;;;;;;10011149;28;20026;-62
2022/03/09 21:36:59;;;;;;;29.40;12.43;;;9.50;42.30;;;;;;10011190;28;20205;-62
2022/03/09 21:41:50;;;;;;;27.05;13.75;;;9.40;42.50;;;;;;10009205;28;20040;-62
2022/03/09 21:46:41;;;;;;;22.33;11.60;;;9.40;42.40;;;;;;10013616;28;20040;-62
2022/03/09 21:51:31;;;;;;;24.25;12.20;;;9.30;42.50;;;;;;10016673;28;20018;-62
2022/03/09 21:56:22;;;;;;;31.67;14.05;;;9.30;42.60;;;;;;10015843;28;20364;-63
2022/03/09 22:01:13;;;;;;;22.05;11.55;;;9.10;42.90;;;;;;10013317;28;20525;-64
2022/03/09 22:06:04;;;;;;;29.45;13.60;;;9.10;42.90;;;;;;10014796;28;20293;-62
2022/03/09 22:10:55;;;;;;;26.73;13.82;;;8.80;43.10;;;;;;10015972;28;20034;-62
2022/03/09 22:15:45;;;;;;;26.35;12.02;;;8.80;43.30;;;;;;10008973;28;20532;-63
2022/03/09 22:20:36;;;;;;;20.02;12.00;;;8.80;43.40;;;;;;10014676;28;20042;-62
2022/03/09 22:25:27;;;;;;;35.85;16.85;;;8.80;43.30;;;;;;10009845;28;20117;-62
2022/03/09 22:30:17;;;;;;;19.77;11.05;;;8.70;43.40;;;;;;10002627;28;20177;-62
2022/03/09 22:35:09;;;;;;;26.67;11.25;;;8.70;43.40;;;;;;10013355;28;20113;-63
2022/03/09 22:40:00;;;;;;;24.83;12.15;;;8.60;43.50;;;;;;10012305;28;20033;-62
2022/03/09 22:44:50;;;;;;;27.23;13.70;;;8.60;43.60;;;;;;10008698;28;20038;-61
2022/03/09 22:49:41;;;;;;;27.10;12.02;;;8.40;43.70;;;;;;10008264;28;20140;-62
2022/03/09 22:54:33;;;;;;;25.05;11.93;;;8.20;43.90;;;;;;10007684;28;20037;-62
2022/03/09 22:59:24;;;;;;;29.13;13.90;;;8.00;44.00;;;;;;10010968;28;20473;-62
2022/03/09 23:04:14;;;;;;;28.75;13.60;;;8.00;44.10;;;;;;10006206;28;20025;-62
2022/03/09 23:09:05;;;;;;;30.35;12.13;;;8.00;44.00;;;;;;10006837;28;20041;-62
2022/03/09 23:13:56;;;;;;;24.75;13.98;;;7.80;44.30;;;;;;10005593;28;20041;-62
2022/03/09 23:18:47;;;;;;;25.60;11.68;;;7.80;44.20;;;;;;9999603;28;20042;-62
2022/03/09 23:23:38;;;;;;;24.60;11.65;;;7.80;44.30;;;;;;9998592;28;20407;-62
2022/03/09 23:28:28;;;;;;;23.77;11.30;;;7.90;44.40;;;;;;10003353;28;20513;-61
2022/03/09 23:33:19;;;;;;;22.38;11.32;;;7.90;44.30;;;;;;9986790;28;20121;-62
2022/03/09 23:38:10;;;;;;;26.08;10.63;;;7.70;44.60;;;;;;9996956;28;20042;-62
2022/03/09 23:43:02;;;;;;;24.50;11.40;;;7.70;44.60;;;;;;10007007;28;20029;-64
2022/03/09 23:47:53;;;;;;;25.90;11.25;;;7.80;44.60;;;;;;9989016;28;20158;-62
2022/03/09 23:52:43;;;;;;;20.25;10.00;;;7.70;44.60;;;;;;9999103;28;20026;-62
2022/03/09 23:57:34;;;;;;;25.35;10.38;;;7.60;45.00;;;;;;9990543;28;20037;-62
